Pagina principală
METAR-TAF:

METAR-TAF

Aeroporturi :

Jasper County Airport (Bell Field)

Jasper, Texas, Statele Unite ale Americii

Latitudine: 30-53-08N, longitudine: 094-02-05W, elevație: 65 m

Observații meteo curente

Raportul a fost făcut în urmă cu 20 de minute, la 21:15 UTC
Vânt calm
Temperatură 35°C
Umiditate 44%
Presiune 1015 hPa
Vizibilitate: 16.1 km
Cer senin

METAR: KJAS 222115Z AUTO 00000KT 10SM CLR 35/21 A2996 RMK AO2

Ora: 16:35 (21:35 UTC)


TAF: lipsă

Observații și prognoze meteo pentru peste 4.000 de aeroporturi (rapoarte METAR și TAF).

Stațiile disponibile sunt reprezentate pe hartă prin puncte galbene și roșii.

Țineți indicatorul mouse-ului pe punctul dorit pentru a vedea denumirea stației.

Apoi, faceți clic pentru a vedea observațiile și prognozele meteorologice.

Pentru a schimba harta: Pentru mărire, faceți clic pe butoanele verzi cu cruce neagră; pentru micșorare, pe butonul verde cu o liniuță; pentru hărți învecinate, pe săgețile verzi.


METAR-TAF: